Terminal Aerodrome Forecast
Issued by NWS

Home | Current Version | Previous Version | Graphics & Text | Print | Product List | Glossary On
Versions: 1 2 3 4 5 6 7 8 9 10 11 12 13 14 15 16 17 18 19 20 21 22 23 24 25 26 27 28 29 30
000
FTUS45 KGGW 201700 RRA
TAFGDV
TAF
KGDV 201758Z 2018/2118 27012G22KT P6SM FEW150
     FM210300 VRB06KT P6SM FEW150 PROB30 2103/2106 P6SM TSRA
      BKN050CB
     FM211400 VRB06KT P6SM BKN080
      AMD LTD TO CLD VIS AND WIND=

USA.gov is the U.S. government's official web portal to all federal, state and local government web resources and services.